createdAt,value
2023-03-07T00:01:02.234Z,45.83
2023-03-07T00:03:29.330Z,40.70
2023-03-07T00:06:08.661Z,43.60
2023-03-07T00:08:36.257Z,45.40
2023-03-07T00:11:08.981Z,44.47
2023-03-07T00:13:37.718Z,44.13
2023-03-07T00:16:07.470Z,44.73
2023-03-07T00:18:35.220Z,45.60
2023-03-07T00:21:08.234Z,44.77
2023-03-07T00:23:37.260Z,48.60
2023-03-07T00:26:19.635Z,46.87
2023-03-07T00:28:48.600Z,40.83
2023-03-07T00:31:15.998Z,44.30
2023-03-07T00:33:43.442Z,44.50
2023-03-07T00:36:16.927Z,39.87
2023-03-07T00:38:44.365Z,41.80
2023-03-07T00:41:16.691Z,40.90
2023-03-07T00:43:44.132Z,43.30
2023-03-07T00:46:11.978Z,40.40
2023-03-07T00:48:39.838Z,43.77
2023-03-07T00:51:09.156Z,45.27
2023-03-07T00:53:37.058Z,44.00
2023-03-07T00:56:09.977Z,43.40
2023-03-07T00:58:37.092Z,44.60
2023-03-07T01:01:06.258Z,47.60
2023-03-07T01:03:34.436Z,48.90
2023-03-07T01:06:10.005Z,46.43
2023-03-07T01:08:36.912Z,47.13
2023-03-07T01:11:06.071Z,48.20
2023-03-07T01:13:34.650Z,45.83
2023-03-07T01:16:22.803Z,49.87
2023-03-07T01:18:52.896Z,45.17
2023-03-07T01:21:28.248Z,48.30
2023-03-07T01:23:55.256Z,49.63
2023-03-07T01:26:27.701Z,47.73
2023-03-07T01:28:57.071Z,51.00
2023-03-07T01:31:25.479Z,46.57
2023-03-07T01:33:54.072Z,46.80
2023-03-07T01:36:29.986Z,49.27
2023-03-07T01:39:05.256Z,49.37
2023-03-07T01:41:33.387Z,49.63
2023-03-07T01:44:08.038Z,49.77
2023-03-07T01:46:44.282Z,48.33
2023-03-07T01:49:29.242Z,47.30
2023-03-07T01:52:12.010Z,50.20
2023-03-07T01:54:42.904Z,47.97
2023-03-07T01:57:09.970Z,48.87
2023-03-07T01:59:42.520Z,47.50
2023-03-07T02:02:17.352Z,48.17
2023-03-07T02:05:02.325Z,50.37
2023-03-07T02:07:34.624Z,48.80
2023-03-07T02:10:02.050Z,51.13
2023-03-07T02:12:29.001Z,46.43
2023-03-07T02:14:56.016Z,46.83
2023-03-07T02:17:22.901Z,48.37
2023-03-07T02:19:58.569Z,48.67
2023-03-07T02:22:26.000Z,50.60
2023-03-07T02:25:14.649Z,51.10
2023-03-07T02:27:42.324Z,47.97
2023-03-07T02:30:10.409Z,51.10
2023-03-07T02:32:37.296Z,52.30
2023-03-07T02:35:15.896Z,48.83
2023-03-07T02:37:45.883Z,52.00
2023-03-07T02:40:16.567Z,54.27
2023-03-07T02:42:44.362Z,52.33
2023-03-07T02:45:16.210Z,51.60
2023-03-07T02:47:43.834Z,53.07
2023-03-07T02:50:13.139Z,51.63
2023-03-07T02:52:39.952Z,54.47
2023-03-07T02:55:09.513Z,53.57
2023-03-07T02:57:36.392Z,55.63
2023-03-07T03:00:09.391Z,55.17
2023-03-07T03:02:36.260Z,51.63
2023-03-07T03:05:03.922Z,54.57
2023-03-07T03:07:30.841Z,57.10
2023-03-07T03:09:58.040Z,59.83
2023-03-07T03:12:24.986Z,58.13
2023-03-07T03:14:51.785Z,62.60
2023-03-07T03:17:18.739Z,58.87
2023-03-07T03:19:45.600Z,59.20
2023-03-07T03:22:12.417Z,58.90
2023-03-07T03:24:40.642Z,62.10
2023-03-07T03:27:07.991Z,66.13
2023-03-07T03:29:34.940Z,67.80
2023-03-07T03:32:02.369Z,64.33
2023-03-07T03:34:29.886Z,72.67
2023-03-07T03:36:59.495Z,65.13
2023-03-07T03:39:26.297Z,74.37
2023-03-07T03:41:53.116Z,81.17
2023-03-07T03:44:19.929Z,76.07
2023-03-07T03:46:48.348Z,93.27
2023-03-07T03:49:16.877Z,78.40
2023-03-07T03:51:43.843Z,80.40
2023-03-07T03:54:13.778Z,76.20
2023-03-07T03:56:40.800Z,79.80
2023-03-07T03:59:07.865Z,78.03
2023-03-07T04:01:34.846Z,84.70
2023-03-07T04:04:02.146Z,82.17
2023-03-07T04:06:31.348Z,82.73
2023-03-07T04:08:58.259Z,77.97
2023-03-07T04:11:25.422Z,74.37
2023-03-07T04:13:53.252Z,132.73
2023-03-07T04:16:22.459Z,129.23
2023-03-07T04:18:52.904Z,89.77
2023-03-07T04:21:20.629Z,70.03
2023-03-07T04:23:49.680Z,64.73
2023-03-07T04:26:16.678Z,70.33
2023-03-07T04:28:44.871Z,68.03
2023-03-07T04:31:17.417Z,72.50
2023-03-07T04:33:44.774Z,71.07
2023-03-07T04:36:12.793Z,64.87
2023-03-07T04:38:40.614Z,69.47
2023-03-07T04:41:07.750Z,67.30
2023-03-07T04:43:34.818Z,67.03
2023-03-07T04:46:01.972Z,71.33
2023-03-07T04:48:28.913Z,79.20
2023-03-07T04:50:55.922Z,73.37
2023-03-07T04:53:22.802Z,94.00
2023-03-07T04:55:49.683Z,63.80
2023-03-07T04:58:18.031Z,107.83
2023-03-07T05:00:46.014Z,77.23
2023-03-07T05:03:14.581Z,63.90
2023-03-07T05:05:41.529Z,69.93
2023-03-07T05:08:08.959Z,64.20
2023-03-07T05:10:36.408Z,84.60
2023-03-07T05:13:03.854Z,70.63
2023-03-07T05:15:30.857Z,77.57
2023-03-07T05:17:58.630Z,60.43
2023-03-07T05:20:25.521Z,63.23
2023-03-07T05:22:52.601Z,69.00
2023-03-07T05:25:19.554Z,58.03
2023-03-07T05:27:47.103Z,73.20
2023-03-07T05:30:14.123Z,85.77
2023-03-07T05:32:41.422Z,79.77
2023-03-07T05:35:11.177Z,76.77
2023-03-07T05:37:38.155Z,70.50
2023-03-07T05:40:11.339Z,75.47
2023-03-07T05:42:38.147Z,90.03
2023-03-07T05:45:06.066Z,68.87
2023-03-07T05:47:32.996Z,84.23
2023-03-07T05:49:59.923Z,72.10
2023-03-07T05:52:27.866Z,147.83
2023-03-07T05:54:55.021Z,72.87
2023-03-07T05:57:23.025Z,70.83
2023-03-07T05:59:49.857Z,82.67
2023-03-07T06:02:17.000Z,95.23
2023-03-07T06:04:43.868Z,68.17
2023-03-07T06:07:12.005Z,68.63
2023-03-07T06:09:38.859Z,65.03
2023-03-07T06:12:10.684Z,91.27
2023-03-07T06:14:37.606Z,68.67
2023-03-07T06:17:05.110Z,73.03
2023-03-07T06:19:32.027Z,75.57
2023-03-07T06:21:58.846Z,85.43
2023-03-07T06:24:31.474Z,90.67
2023-03-07T06:26:59.833Z,94.30
2023-03-07T06:29:26.765Z,93.23
2023-03-07T06:31:53.565Z,80.40
2023-03-07T06:34:20.485Z,82.83
2023-03-07T06:36:48.730Z,75.10
2023-03-07T06:39:20.994Z,75.67
2023-03-07T06:41:51.307Z,72.83
2023-03-07T06:44:18.534Z,73.63
2023-03-07T06:46:46.040Z,64.97
2023-03-07T06:49:13.253Z,62.87
2023-03-07T06:51:40.271Z,59.30
2023-03-07T06:54:07.433Z,61.20
2023-03-07T06:56:35.314Z,54.77
2023-03-07T06:59:02.270Z,57.03
2023-03-07T07:01:36.322Z,55.13
2023-03-07T07:04:04.034Z,57.20
2023-03-07T07:06:31.240Z,60.77
2023-03-07T07:08:58.973Z,55.33
2023-03-07T07:11:26.535Z,56.97
2023-03-07T07:13:53.391Z,58.57
2023-03-07T07:16:23.580Z,56.70
2023-03-07T07:18:52.132Z,59.80
2023-03-07T07:21:19.366Z,51.33
2023-03-07T07:23:48.613Z,52.53
2023-03-07T07:26:15.789Z,51.97
2023-03-07T07:28:42.610Z,50.70
2023-03-07T07:31:09.479Z,51.20
2023-03-07T07:33:36.402Z,46.87
2023-03-07T07:36:03.972Z,52.27
2023-03-07T07:38:30.825Z,46.83
2023-03-07T07:40:57.851Z,45.30
2023-03-07T07:43:24.721Z,39.40
2023-03-07T07:45:51.580Z,39.83
2023-03-07T07:48:18.439Z,38.33
2023-03-07T07:50:46.083Z,37.27
2023-03-07T07:53:13.826Z,41.00
2023-03-07T07:55:40.662Z,38.40
2023-03-07T07:58:07.548Z,37.77
2023-03-07T08:00:34.579Z,38.27
2023-03-07T08:03:03.937Z,34.90
2023-03-07T08:05:31.900Z,37.00
2023-03-07T08:07:59.720Z,33.83
2023-03-07T08:10:26.784Z,36.00
2023-03-07T08:12:53.702Z,35.90
2023-03-07T08:15:23.867Z,34.60
2023-03-07T08:17:52.459Z,33.27
2023-03-07T08:20:22.308Z,33.30
2023-03-07T08:22:50.619Z,35.70
2023-03-07T08:25:21.582Z,32.33
2023-03-07T08:27:53.014Z,30.23
2023-03-07T08:30:25.060Z,36.63
2023-03-07T08:32:54.258Z,29.83
2023-03-07T08:35:21.358Z,30.27
2023-03-07T08:37:52.687Z,31.90
2023-03-07T08:40:20.518Z,33.07
2023-03-07T08:42:47.602Z,31.80
2023-03-07T08:45:15.305Z,30.60
2023-03-07T08:47:42.429Z,34.90
2023-03-07T08:50:09.855Z,31.77
2023-03-07T08:52:36.733Z,33.13
2023-03-07T08:55:03.933Z,33.50
2023-03-07T08:57:31.391Z,30.13
2023-03-07T08:59:58.234Z,30.20
2023-03-07T09:02:25.163Z,33.67
2023-03-07T09:04:59.052Z,31.60
2023-03-07T09:07:27.577Z,33.87
2023-03-07T09:09:54.350Z,33.87
2023-03-07T09:12:25.381Z,33.63
2023-03-07T09:14:55.987Z,35.53
2023-03-07T09:17:23.057Z,33.53
2023-03-07T09:19:50.685Z,33.80
2023-03-07T09:22:17.670Z,32.47
2023-03-07T09:24:44.511Z,35.40
2023-03-07T09:27:11.609Z,33.23
2023-03-07T09:29:38.457Z,38.03
2023-03-07T09:32:05.608Z,33.13
2023-03-07T09:34:32.454Z,32.40
2023-03-07T09:36:59.853Z,35.03
2023-03-07T09:39:26.701Z,31.57
2023-03-07T09:42:14.605Z,33.77
2023-03-07T09:44:41.357Z,32.47
2023-03-07T09:47:34.418Z,33.43
2023-03-07T09:50:03.993Z,34.70
2023-03-07T09:52:35.042Z,35.17
2023-03-07T09:55:12.080Z,34.67
2023-03-07T09:57:48.239Z,33.30
2023-03-07T10:00:33.008Z,32.73
2023-03-07T10:03:19.641Z,36.33
2023-03-07T10:05:51.645Z,35.87
2023-03-07T10:08:33.124Z,36.33
2023-03-07T10:11:01.022Z,35.90
2023-03-07T10:14:03.164Z,38.47
2023-03-07T10:17:07.686Z,38.80
2023-03-07T10:20:01.168Z,39.93
2023-03-07T10:22:31.138Z,37.57
2023-03-07T10:25:27.404Z,42.40
2023-03-07T10:28:08.784Z,42.50
2023-03-07T10:30:35.901Z,40.57
2023-03-07T10:33:06.661Z,37.83
2023-03-07T10:35:41.265Z,38.00
2023-03-07T10:38:26.812Z,42.43
2023-03-07T10:41:06.608Z,43.30
2023-03-07T10:43:34.925Z,42.60
2023-03-07T10:46:26.495Z,45.80
2023-03-07T10:49:10.181Z,44.97
2023-03-07T10:52:12.751Z,41.90
2023-03-07T10:54:39.948Z,40.37
2023-03-07T10:57:16.565Z,39.73
2023-03-07T10:59:48.553Z,39.63
2023-03-07T11:02:37.211Z,41.63
2023-03-07T11:05:24.208Z,41.60
2023-03-07T11:07:51.080Z,39.97
2023-03-07T11:10:40.132Z,44.43
2023-03-07T11:13:34.079Z,42.57
2023-03-07T11:16:18.756Z,39.57
2023-03-07T11:18:46.129Z,42.43
2023-03-07T11:21:52.218Z,38.57
2023-03-07T11:24:28.590Z,42.40
2023-03-07T11:26:57.442Z,40.63
2023-03-07T11:29:26.002Z,40.20
2023-03-07T11:31:58.669Z,41.30
2023-03-07T11:34:52.307Z,39.80
2023-03-07T11:37:34.607Z,40.33
2023-03-07T11:40:33.296Z,39.17
2023-03-07T11:43:12.082Z,39.33
2023-03-07T11:45:48.259Z,39.00
2023-03-07T11:48:57.151Z,38.47
2023-03-07T11:51:42.900Z,33.97
2023-03-07T11:54:24.771Z,34.43
2023-03-07T11:56:54.908Z,34.00
2023-03-07T12:00:17.990Z,35.70
2023-03-07T12:03:06.322Z,32.57
2023-03-07T12:05:33.397Z,32.40
2023-03-07T12:08:33.680Z,32.83
2023-03-07T12:11:23.257Z,29.93
2023-03-07T12:14:08.123Z,28.70
2023-03-07T12:16:44.794Z,27.67
2023-03-07T12:19:24.789Z,29.63
2023-03-07T12:22:09.213Z,27.97
2023-03-07T12:25:12.885Z,29.47
2023-03-07T12:27:44.678Z,31.43
2023-03-07T12:30:25.355Z,28.60
2023-03-07T12:32:55.568Z,26.33
2023-03-07T12:35:31.303Z,30.23
2023-03-07T12:37:58.136Z,29.13
2023-03-07T12:41:07.992Z,26.70
2023-03-07T12:43:41.193Z,27.70
2023-03-07T12:46:19.383Z,25.70
2023-03-07T12:49:04.899Z,26.27
2023-03-07T12:51:47.618Z,29.90
2023-03-07T12:54:21.479Z,27.77
2023-03-07T12:57:14.930Z,28.70
2023-03-07T12:59:44.172Z,28.80
2023-03-07T13:02:22.537Z,26.73
2023-03-07T13:04:50.014Z,27.27
2023-03-07T13:07:33.515Z,25.53
2023-03-07T13:10:07.380Z,23.43
2023-03-07T13:12:36.858Z,28.50
2023-03-07T13:15:21.024Z,25.73
2023-03-07T13:17:47.946Z,24.60
2023-03-07T13:20:38.342Z,24.37
2023-03-07T13:23:21.356Z,23.97
2023-03-07T13:26:13.280Z,24.77
2023-03-07T13:28:46.544Z,22.53
2023-03-07T13:31:29.298Z,24.27
2023-03-07T13:34:16.846Z,25.80
2023-03-07T13:36:43.787Z,24.87
2023-03-07T13:39:36.753Z,24.87
2023-03-07T13:42:25.714Z,22.87
2023-03-07T13:44:52.695Z,23.87
2023-03-07T13:50:35.913Z,22.30
2023-03-07T13:53:14.516Z,24.93
2023-03-07T13:55:46.934Z,21.20
2023-03-07T13:58:33.188Z,21.63
2023-03-07T14:01:04.418Z,22.63
2023-03-07T14:03:37.882Z,21.40
2023-03-07T14:06:23.215Z,20.70
2023-03-07T14:08:58.244Z,21.63
2023-03-07T14:12:09.604Z,22.70
2023-03-07T14:14:59.752Z,20.63
2023-03-07T14:17:37.983Z,20.30
2023-03-07T14:20:35.696Z,21.07
2023-03-07T14:23:21.035Z,19.57
2023-03-07T14:25:52.478Z,19.47
2023-03-07T14:28:27.826Z,20.67
2023-03-07T14:31:03.505Z,17.37
2023-03-07T14:33:38.498Z,17.40
2023-03-07T14:36:21.080Z,19.07
2023-03-07T14:38:50.310Z,19.83
2023-03-07T14:41:26.368Z,18.10
2023-03-07T14:44:18.775Z,18.03
2023-03-07T14:47:13.406Z,19.73
2023-03-07T14:49:49.158Z,19.60
2023-03-07T14:52:30.081Z,17.47
2023-03-07T14:55:01.963Z,18.13
2023-03-07T14:57:33.723Z,19.30
2023-03-07T15:00:25.368Z,16.77
2023-03-07T15:03:08.295Z,17.90
2023-03-07T15:05:46.047Z,21.00
2023-03-07T15:08:23.236Z,20.07
2023-03-07T15:11:18.277Z,19.70
2023-03-07T15:13:52.698Z,18.77
2023-03-07T15:16:27.320Z,18.50
2023-03-07T15:19:19.312Z,20.40
2023-03-07T15:21:56.054Z,17.40
2023-03-07T15:24:32.205Z,19.23
2023-03-07T15:27:00.783Z,20.93
2023-03-07T15:29:32.840Z,18.57
2023-03-07T15:32:07.245Z,17.43
2023-03-07T15:34:37.605Z,19.43
2023-03-07T15:37:19.597Z,16.40
2023-03-07T15:39:55.965Z,18.83
2023-03-07T15:42:27.490Z,16.67
2023-03-07T15:45:01.543Z,16.53
2023-03-07T15:47:30.949Z,17.33
2023-03-07T15:50:01.184Z,20.90
2023-03-07T15:52:36.338Z,20.10
2023-03-07T15:55:08.247Z,17.60
2023-03-07T15:57:47.757Z,17.80
2023-03-07T16:00:28.133Z,18.23
2023-03-07T16:03:32.164Z,18.43
2023-03-07T16:06:00.888Z,19.20
2023-03-07T16:08:27.784Z,21.37
2023-03-07T16:11:07.973Z,21.60
2023-03-07T16:13:43.782Z,17.53
2023-03-07T16:16:19.838Z,17.73
2023-03-07T16:18:46.920Z,19.40
2023-03-07T16:21:16.434Z,18.17
2023-03-07T16:23:44.272Z,18.53
2023-03-07T16:26:16.525Z,17.87
2023-03-07T16:28:44.463Z,18.20
2023-03-07T16:31:16.514Z,19.60
2023-03-07T16:33:45.201Z,20.10
2023-03-07T16:36:12.945Z,19.37
2023-03-07T16:38:40.228Z,18.10
2023-03-07T16:41:18.728Z,18.63
2023-03-07T16:43:47.318Z,19.33
2023-03-07T16:46:22.622Z,21.57
2023-03-07T16:48:49.885Z,22.20
2023-03-07T16:51:19.260Z,19.60
2023-03-07T16:53:47.516Z,21.87
2023-03-07T16:56:25.359Z,19.67
2023-03-07T16:58:54.149Z,21.93
2023-03-07T17:01:23.566Z,21.50
2023-03-07T17:03:50.533Z,24.80
2023-03-07T17:06:19.093Z,19.93
2023-03-07T17:08:46.031Z,20.47
2023-03-07T17:11:18.942Z,21.83
2023-03-07T17:13:47.692Z,21.77
2023-03-07T17:16:18.460Z,19.73
2023-03-07T17:18:53.381Z,22.40
2023-03-07T17:21:22.138Z,20.57
2023-03-07T17:23:49.694Z,21.33
2023-03-07T17:26:51.098Z,22.63
2023-03-07T17:29:28.751Z,21.60
2023-03-07T17:32:12.236Z,24.07
2023-03-07T17:34:58.674Z,19.97
2023-03-07T17:37:34.753Z,21.20
2023-03-07T17:40:02.180Z,20.40
2023-03-07T17:42:34.270Z,20.93
2023-03-07T17:47:51.533Z,20.27
2023-03-07T17:50:24.951Z,21.33
2023-03-07T17:59:47.740Z,19.60
2023-03-07T18:02:17.677Z,20.70
2023-03-07T18:07:32.408Z,20.97
2023-03-07T18:10:08.000Z,21.77
2023-03-07T18:12:42.393Z,22.10
2023-03-07T18:15:15.158Z,19.93
2023-03-07T18:17:48.164Z,22.10
2023-03-07T18:20:18.128Z,21.83
2023-03-07T18:22:45.372Z,20.10
2023-03-07T18:25:18.231Z,26.50
2023-03-07T18:27:48.002Z,23.00
2023-03-07T18:30:15.346Z,21.70
2023-03-07T18:32:46.226Z,20.97
2023-03-07T18:35:15.590Z,21.27
2023-03-07T18:37:45.086Z,20.83
2023-03-07T18:40:16.996Z,22.50
2023-03-07T18:42:44.116Z,24.10
2023-03-07T18:45:12.675Z,19.53
2023-03-07T18:47:39.516Z,20.47
2023-03-07T18:50:08.143Z,20.83
2023-03-07T18:52:34.954Z,21.63
2023-03-07T18:55:02.912Z,23.27
2023-03-07T18:57:30.511Z,24.53
2023-03-07T18:59:57.432Z,22.40
2023-03-07T19:02:24.681Z,18.73
2023-03-07T19:04:53.907Z,21.23
2023-03-07T19:07:20.904Z,20.33
2023-03-07T19:09:53.299Z,17.97
2023-03-07T19:12:20.664Z,20.43
2023-03-07T19:14:47.503Z,22.70
2023-03-07T19:17:14.349Z,19.43
2023-03-07T19:19:41.328Z,20.13
2023-03-07T19:22:11.148Z,20.50
2023-03-07T19:24:38.186Z,19.00
2023-03-07T19:27:12.658Z,19.53
2023-03-07T19:29:39.465Z,17.00
2023-03-07T19:32:06.426Z,21.77
2023-03-07T19:34:33.511Z,20.23
2023-03-07T19:37:00.529Z,18.00
2023-03-07T19:39:27.582Z,17.30
2023-03-07T19:41:54.733Z,18.43
2023-03-07T19:44:24.159Z,18.00
2023-03-07T19:46:51.024Z,15.70
2023-03-07T19:49:18.516Z,16.73
2023-03-07T19:51:45.417Z,17.83
2023-03-07T19:54:15.548Z,16.97
2023-03-07T19:56:44.526Z,17.67
2023-03-07T19:59:12.813Z,19.17
2023-03-07T20:01:39.705Z,19.83
2023-03-07T20:04:07.925Z,17.57
2023-03-07T20:06:42.396Z,16.47
2023-03-07T20:09:12.957Z,19.97
2023-03-07T20:11:43.342Z,16.63
2023-03-07T20:14:11.309Z,19.43
2023-03-07T20:16:38.361Z,18.70
2023-03-07T20:19:08.764Z,15.80
2023-03-07T20:21:36.553Z,16.37
2023-03-07T20:24:04.728Z,16.37
2023-03-07T20:26:40.910Z,15.67
2023-03-07T20:29:09.675Z,16.73
2023-03-07T20:31:39.226Z,18.10
2023-03-07T20:34:07.140Z,16.63
2023-03-07T20:36:36.493Z,18.27
2023-03-07T20:39:08.934Z,17.13
2023-03-07T20:41:36.087Z,17.10
2023-03-07T20:44:05.990Z,16.63
2023-03-07T20:46:33.863Z,18.30
2023-03-07T20:49:01.939Z,17.13
2023-03-07T20:51:31.952Z,16.50
2023-03-07T20:54:02.915Z,17.87
2023-03-07T20:56:32.170Z,16.80
2023-03-07T20:59:02.505Z,17.67
2023-03-07T21:01:31.838Z,19.10
2023-03-07T21:04:08.292Z,17.80
2023-03-07T21:06:37.394Z,18.53
2023-03-07T21:09:10.281Z,19.07
2023-03-07T21:11:40.115Z,18.67
2023-03-07T21:14:07.544Z,18.97
2023-03-07T21:16:34.673Z,18.90
2023-03-07T21:19:03.349Z,19.37
2023-03-07T21:21:31.140Z,18.77
2023-03-07T21:23:58.362Z,20.17
2023-03-07T21:26:27.877Z,20.03
2023-03-07T21:43:55.088Z,15.37
2023-03-07T21:46:26.254Z,15.80
2023-03-07T21:48:53.620Z,17.40
2023-03-07T21:51:21.167Z,17.10
2023-03-07T21:53:48.126Z,19.43
2023-03-07T21:56:17.262Z,17.03
2023-03-07T21:58:51.654Z,15.47
2023-03-07T22:01:21.279Z,15.17
2023-03-07T22:03:48.248Z,18.20
2023-03-07T22:06:17.055Z,16.63
2023-03-07T22:08:44.024Z,14.90
2023-03-07T22:11:12.608Z,15.00
2023-03-07T22:13:41.397Z,13.77
2023-03-07T22:16:14.590Z,14.83
2023-03-07T22:18:41.429Z,15.80
2023-03-07T22:21:10.302Z,15.33
2023-03-07T22:23:37.391Z,13.60
2023-03-07T22:26:06.902Z,13.60
2023-03-07T22:28:34.664Z,15.57
2023-03-07T22:31:04.782Z,15.53
2023-03-07T22:33:32.276Z,14.20
2023-03-07T22:36:01.144Z,9.03
2023-03-07T22:38:29.187Z,9.40
2023-03-07T22:41:07.799Z,9.03
2023-03-07T22:43:35.960Z,9.33
2023-03-07T22:46:07.404Z,10.90
2023-03-07T22:48:35.252Z,10.03
2023-03-07T22:51:02.240Z,8.63
2023-03-07T22:53:33.903Z,8.33
2023-03-07T22:56:01.130Z,8.43
2023-03-07T22:58:29.475Z,9.17
2023-03-07T23:00:56.395Z,7.87
2023-03-07T23:03:23.511Z,6.43
2023-03-07T23:05:50.474Z,8.17
2023-03-07T23:08:17.374Z,6.57
2023-03-07T23:10:44.216Z,4.53
2023-03-07T23:13:10.977Z,3.43
2023-03-07T23:15:41.401Z,4.10
2023-03-07T23:18:08.869Z,2.87
2023-03-07T23:20:39.019Z,3.73
2023-03-07T23:23:06.117Z,6.47
2023-03-07T23:25:33.848Z,4.23
2023-03-07T23:28:00.819Z,4.97
2023-03-07T23:30:27.736Z,4.87
2023-03-07T23:32:54.931Z,5.60
2023-03-07T23:35:21.723Z,2.97
2023-03-07T23:37:49.615Z,2.90
2023-03-07T23:40:19.345Z,2.53
2023-03-07T23:42:46.103Z,2.90
2023-03-07T23:45:12.984Z,4.63
2023-03-07T23:47:39.769Z,2.27
2023-03-07T23:50:07.796Z,2.97
2023-03-07T23:52:34.691Z,4.00
2023-03-07T23:55:01.631Z,3.90
2023-03-07T23:57:28.426Z,3.23
2023-03-07T23:59:55.187Z,3.50
